sensor_id;sensor_type;location;lat;lon;timestamp;pressure;altitude;pressure_sealevel;temperature;humidity
50430;BME280;36359;41.556;-8.418;2023-05-22T00:00:28;99664.31;;;19.50;52.04
50430;BME280;36359;41.556;-8.418;2023-05-22T00:02:53;99663.53;;;19.43;52.48
50430;BME280;36359;41.556;-8.418;2023-05-22T00:05:19;99658.03;;;19.43;52.34
50430;BME280;36359;41.556;-8.418;2023-05-22T00:07:45;99665.84;;;19.46;52.61
50430;BME280;36359;41.556;-8.418;2023-05-22T00:10:10;99666.22;;;19.49;52.55
50430;BME280;36359;41.556;-8.418;2023-05-22T00:12:36;99658.47;;;19.40;52.55
50430;BME280;36359;41.556;-8.418;2023-05-22T00:15:02;99661.41;;;19.45;52.38
50430;BME280;36359;41.556;-8.418;2023-05-22T00:17:28;99656.81;;;19.39;52.97
50430;BME280;36359;41.556;-8.418;2023-05-22T00:19:55;99654.13;;;19.25;53.10
50430;BME280;36359;41.556;-8.418;2023-05-22T00:22:21;99653.50;;;19.23;53.21
50430;BME280;36359;41.556;-8.418;2023-05-22T00:24:46;99659.00;;;19.23;53.19
50430;BME280;36359;41.556;-8.418;2023-05-22T00:27:12;99668.00;;;19.12;53.46
50430;BME280;36359;41.556;-8.418;2023-05-22T00:29:37;99668.59;;;19.14;53.54
50430;BME280;36359;41.556;-8.418;2023-05-22T00:32:04;99677.38;;;18.98;53.88
50430;BME280;36359;41.556;-8.418;2023-05-22T00:34:29;99671.06;;;18.91;54.59
50430;BME280;36359;41.556;-8.418;2023-05-22T00:36:55;99678.72;;;18.89;54.60
50430;BME280;36359;41.556;-8.418;2023-05-22T00:39:21;99667.38;;;18.65;55.77
50430;BME280;36359;41.556;-8.418;2023-05-22T00:41:46;99655.38;;;18.53;56.16
50430;BME280;36359;41.556;-8.418;2023-05-22T00:44:12;99668.06;;;18.54;56.24
50430;BME280;36359;41.556;-8.418;2023-05-22T00:46:37;99674.19;;;18.49;56.65
50430;BME280;36359;41.556;-8.418;2023-05-22T00:49:03;99671.25;;;18.51;56.73
50430;BME280;36359;41.556;-8.418;2023-05-22T00:51:29;99668.94;;;18.48;56.93
50430;BME280;36359;41.556;-8.418;2023-05-22T00:53:55;99666.16;;;18.54;56.70
50430;BME280;36359;41.556;-8.418;2023-05-22T00:56:21;99665.31;;;18.54;56.65
50430;BME280;36359;41.556;-8.418;2023-05-22T00:58:46;99673.97;;;18.57;56.71
50430;BME280;36359;41.556;-8.418;2023-05-22T01:01:12;99672.50;;;18.55;56.77
50430;BME280;36359;41.556;-8.418;2023-05-22T01:03:38;99683.88;;;18.58;56.83
50430;BME280;36359;41.556;-8.418;2023-05-22T01:06:14;99685.16;;;18.56;56.87
50430;BME280;36359;41.556;-8.418;2023-05-22T01:08:40;99691.53;;;18.50;57.19
50430;BME280;36359;41.556;-8.418;2023-05-22T01:11:07;99691.34;;;18.45;57.43
50430;BME280;36359;41.556;-8.418;2023-05-22T01:29:01;99681.56;;;18.62;56.92
50430;BME280;36359;41.556;-8.418;2023-05-22T01:31:33;99684.41;;;18.35;58.35
50430;BME280;36359;41.556;-8.418;2023-05-22T01:34:01;99681.50;;;18.24;58.79
50430;BME280;36359;41.556;-8.418;2023-05-22T01:36:30;99684.22;;;18.30;58.59
50430;BME280;36359;41.556;-8.418;2023-05-22T01:38:59;99683.19;;;18.18;58.99
50430;BME280;36359;41.556;-8.418;2023-05-22T01:41:26;99684.88;;;18.19;58.91
50430;BME280;36359;41.556;-8.418;2023-05-22T01:44:09;99685.72;;;18.20;58.64
50430;BME280;36359;41.556;-8.418;2023-05-22T01:46:34;99681.91;;;18.14;58.93
50430;BME280;36359;41.556;-8.418;2023-05-22T01:49:00;99677.28;;;18.21;58.51
50430;BME280;36359;41.556;-8.418;2023-05-22T01:51:38;99688.28;;;18.08;58.88
50430;BME280;36359;41.556;-8.418;2023-05-22T01:56:45;99684.47;;;18.09;58.98
50430;BME280;36359;41.556;-8.418;2023-05-22T01:59:17;99690.34;;;18.26;58.46
50430;BME280;36359;41.556;-8.418;2023-05-22T02:01:45;99684.03;;;18.19;58.46
50430;BME280;36359;41.556;-8.418;2023-05-22T02:04:12;99687.81;;;18.24;58.37
50430;BME280;36359;41.556;-8.418;2023-05-22T02:06:38;99691.44;;;18.05;59.24
50430;BME280;36359;41.556;-8.418;2023-05-22T02:09:04;99674.38;;;17.89;59.92
50430;BME280;36359;41.556;-8.418;2023-05-22T02:11:30;99673.53;;;17.96;59.77
50430;BME280;36359;41.556;-8.418;2023-05-22T02:13:57;99669.53;;;17.78;60.33
50430;BME280;36359;41.556;-8.418;2023-05-22T02:16:22;99671.00;;;17.87;59.74
50430;BME280;36359;41.556;-8.418;2023-05-22T02:18:49;99663.41;;;17.89;59.49
50430;BME280;36359;41.556;-8.418;2023-05-22T02:21:19;99655.59;;;17.86;59.34
50430;BME280;36359;41.556;-8.418;2023-05-22T02:23:46;99660.44;;;17.91;59.20
50430;BME280;36359;41.556;-8.418;2023-05-22T02:26:11;99661.47;;;17.97;59.04
50430;BME280;36359;41.556;-8.418;2023-05-22T02:28:48;99660.00;;;18.01;58.56
50430;BME280;36359;41.556;-8.418;2023-05-22T02:31:13;99665.50;;;18.01;58.42
50430;BME280;36359;41.556;-8.418;2023-05-22T02:33:40;99651.13;;;18.12;58.22
50430;BME280;36359;41.556;-8.418;2023-05-22T02:36:06;99650.25;;;18.18;57.83
50430;BME280;36359;41.556;-8.418;2023-05-22T02:38:35;99651.50;;;18.22;57.96
50430;BME280;36359;41.556;-8.418;2023-05-22T02:41:01;99652.50;;;18.34;57.12
50430;BME280;36359;41.556;-8.418;2023-05-22T02:43:27;99655.31;;;18.21;57.37
50430;BME280;36359;41.556;-8.418;2023-05-22T02:45:52;99653.97;;;18.37;56.95
50430;BME280;36359;41.556;-8.418;2023-05-22T02:48:18;99653.13;;;18.36;56.96
50430;BME280;36359;41.556;-8.418;2023-05-22T02:50:44;99648.69;;;18.42;57.00
50430;BME280;36359;41.556;-8.418;2023-05-22T02:53:09;99652.25;;;18.43;57.05
50430;BME280;36359;41.556;-8.418;2023-05-22T02:55:35;99651.91;;;18.32;57.42
50430;BME280;36359;41.556;-8.418;2023-05-22T02:58:01;99652.91;;;18.38;57.31
50430;BME280;36359;41.556;-8.418;2023-05-22T03:00:26;99656.44;;;18.52;56.65
50430;BME280;36359;41.556;-8.418;2023-05-22T03:02:53;99655.38;;;18.53;56.59
50430;BME280;36359;41.556;-8.418;2023-05-22T03:05:19;99656.44;;;18.52;56.43
50430;BME280;36359;41.556;-8.418;2023-05-22T03:07:44;99657.63;;;18.69;55.76
50430;BME280;36359;41.556;-8.418;2023-05-22T03:10:11;99655.72;;;18.70;55.84
50430;BME280;36359;41.556;-8.418;2023-05-22T03:12:36;99657.91;;;18.54;56.27
50430;BME280;36359;41.556;-8.418;2023-05-22T03:15:02;99662.78;;;18.59;56.19
50430;BME280;36359;41.556;-8.418;2023-05-22T03:17:29;99650.56;;;18.48;56.81
50430;BME280;36359;41.556;-8.418;2023-05-22T03:19:55;99655.66;;;18.45;57.15
50430;BME280;36359;41.556;-8.418;2023-05-22T03:22:20;99655.22;;;18.41;57.31
50430;BME280;36359;41.556;-8.418;2023-05-22T03:24:47;99650.59;;;18.42;57.35
50430;BME280;36359;41.556;-8.418;2023-05-22T03:27:13;99648.91;;;18.34;57.52
50430;BME280;36359;41.556;-8.418;2023-05-22T03:29:41;99654.59;;;18.39;57.37
50430;BME280;36359;41.556;-8.418;2023-05-22T03:32:06;99650.19;;;18.31;57.46
50430;BME280;36359;41.556;-8.418;2023-05-22T03:34:32;99653.00;;;18.18;58.23
50430;BME280;36359;41.556;-8.418;2023-05-22T03:36:59;99653.69;;;17.67;59.89
50430;BME280;36359;41.556;-8.418;2023-05-22T03:39:24;99654.31;;;17.42;60.57
50430;BME280;36359;41.556;-8.418;2023-05-22T03:41:55;99647.59;;;17.38;61.08
50430;BME280;36359;41.556;-8.418;2023-05-22T03:44:22;99652.22;;;17.71;60.07
50430;BME280;36359;41.556;-8.418;2023-05-22T03:46:48;99646.28;;;17.74;59.92
50430;BME280;36359;41.556;-8.418;2023-05-22T03:49:13;99653.91;;;17.65;60.15
50430;BME280;36359;41.556;-8.418;2023-05-22T03:51:39;99651.59;;;17.62;60.49
50430;BME280;36359;41.556;-8.418;2023-05-22T03:54:04;99646.50;;;17.46;61.33
50430;BME280;36359;41.556;-8.418;2023-05-22T03:56:30;99648.41;;;17.72;60.17
50430;BME280;36359;41.556;-8.418;2023-05-22T03:58:55;99641.03;;;17.86;59.96
50430;BME280;36359;41.556;-8.418;2023-05-22T04:01:21;99645.66;;;17.59;60.94
50430;BME280;36359;41.556;-8.418;2023-05-22T04:03:47;99649.47;;;17.84;59.57
50430;BME280;36359;41.556;-8.418;2023-05-22T04:06:13;99657.28;;;17.87;59.88
50430;BME280;36359;41.556;-8.418;2023-05-22T04:08:38;99657.03;;;18.02;59.25
50430;BME280;36359;41.556;-8.418;2023-05-22T04:11:04;99656.22;;;17.82;60.47
50430;BME280;36359;41.556;-8.418;2023-05-22T04:13:30;99651.34;;;17.64;61.24
50430;BME280;36359;41.556;-8.418;2023-05-22T04:15:55;99653.06;;;17.45;61.90
50430;BME280;36359;41.556;-8.418;2023-05-22T04:18:21;99656.84;;;17.77;60.50
50430;BME280;36359;41.556;-8.418;2023-05-22T04:20:47;99656.22;;;17.82;60.25
50430;BME280;36359;41.556;-8.418;2023-05-22T04:23:17;99659.19;;;17.60;60.90
50430;BME280;36359;41.556;-8.418;2023-05-22T04:25:42;99662.16;;;17.39;61.58
50430;BME280;36359;41.556;-8.418;2023-05-22T04:28:08;99657.28;;;17.34;61.92
50430;BME280;36359;41.556;-8.418;2023-05-22T04:30:34;99667.81;;;17.44;61.71
50430;BME280;36359;41.556;-8.418;2023-05-22T04:33:04;99668.44;;;17.19;62.66
50430;BME280;36359;41.556;-8.418;2023-05-22T04:35:30;99668.44;;;17.53;61.41
50430;BME280;36359;41.556;-8.418;2023-05-22T04:37:57;99672.03;;;17.46;61.62
50430;BME280;36359;41.556;-8.418;2023-05-22T04:40:26;99673.09;;;17.32;61.95
50430;BME280;36359;41.556;-8.418;2023-05-22T04:42:53;99665.50;;;17.21;62.45
50430;BME280;36359;41.556;-8.418;2023-05-22T04:45:19;99674.34;;;17.23;62.24
50430;BME280;36359;41.556;-8.418;2023-05-22T04:47:49;99670.16;;;17.60;60.52
50430;BME280;36359;41.556;-8.418;2023-05-22T04:50:16;99675.81;;;17.59;60.53
50430;BME280;36359;41.556;-8.418;2023-05-22T04:52:43;99689.16;;;17.95;59.20
50430;BME280;36359;41.556;-8.418;2023-05-22T04:55:08;99679.88;;;17.83;59.90
50430;BME280;36359;41.556;-8.418;2023-05-22T04:57:36;99689.53;;;17.59;61.14
50430;BME280;36359;41.556;-8.418;2023-05-22T05:00:02;99688.28;;;17.28;62.32
50430;BME280;36359;41.556;-8.418;2023-05-22T05:02:30;99691.56;;;16.90;63.60
50430;BME280;36359;41.556;-8.418;2023-05-22T05:04:56;99695.38;;;16.96;63.46
50430;BME280;36359;41.556;-8.418;2023-05-22T05:07:22;99696.63;;;16.93;64.00
50430;BME280;36359;41.556;-8.418;2023-05-22T05:09:48;99705.28;;;16.97;64.29
50430;BME280;36359;41.556;-8.418;2023-05-22T05:12:14;99704.25;;;17.11;63.99
50430;BME280;36359;41.556;-8.418;2023-05-22T05:14:40;99698.38;;;17.08;63.84
50430;BME280;36359;41.556;-8.418;2023-05-22T05:17:06;99712.31;;;17.26;62.86
50430;BME280;36359;41.556;-8.418;2023-05-22T05:19:31;99703.28;;;17.45;62.02
50430;BME280;36359;41.556;-8.418;2023-05-22T05:21:59;99703.25;;;17.59;61.52
50430;BME280;36359;41.556;-8.418;2023-05-22T05:24:24;99707.91;;;17.45;62.23
50430;BME280;36359;41.556;-8.418;2023-05-22T05:26:50;99713.22;;;17.86;60.78
50430;BME280;36359;41.556;-8.418;2023-05-22T05:29:17;99714.22;;;17.59;61.93
50430;BME280;36359;41.556;-8.418;2023-05-22T05:31:50;99716.38;;;17.57;61.91
50430;BME280;36359;41.556;-8.418;2023-05-22T05:34:39;99720.78;;;17.51;61.89
50430;BME280;36359;41.556;-8.418;2023-05-22T05:37:15;99718.66;;;17.46;62.21
50430;BME280;36359;41.556;-8.418;2023-05-22T05:39:42;99719.28;;;17.35;62.39
50430;BME280;36359;41.556;-8.418;2023-05-22T05:42:09;99721.63;;;17.38;61.96
50430;BME280;36359;41.556;-8.418;2023-05-22T05:44:34;99732.19;;;17.41;61.80
50430;BME280;36359;41.556;-8.418;2023-05-22T05:47:03;99730.69;;;17.39;61.73
50430;BME280;36359;41.556;-8.418;2023-05-22T05:49:29;99733.25;;;17.60;61.30
50430;BME280;36359;41.556;-8.418;2023-05-22T05:51:55;99742.31;;;17.67;61.83
50430;BME280;36359;41.556;-8.418;2023-05-22T05:54:22;99750.72;;;17.33;62.96
50430;BME280;36359;41.556;-8.418;2023-05-22T05:56:52;99763.31;;;17.14;64.16
50430;BME280;36359;41.556;-8.418;2023-05-22T05:59:18;99753.28;;;17.47;63.07
50430;BME280;36359;41.556;-8.418;2023-05-22T06:02:02;99752.84;;;17.51;62.29
50430;BME280;36359;41.556;-8.418;2023-05-22T06:04:31;99751.16;;;17.43;62.91
50430;BME280;36359;41.556;-8.418;2023-05-22T06:06:56;99755.16;;;17.47;63.21
50430;BME280;36359;41.556;-8.418;2023-05-22T06:09:32;99763.84;;;17.51;62.96
50430;BME280;36359;41.556;-8.418;2023-05-22T06:12:11;99762.78;;;17.65;62.30
50430;BME280;36359;41.556;-8.418;2023-05-22T06:14:38;99765.16;;;17.95;60.71
50430;BME280;36359;41.556;-8.418;2023-05-22T06:17:07;99767.25;;;17.92;61.04
50430;BME280;36359;41.556;-8.418;2023-05-22T06:19:35;99770.63;;;18.01;61.33
50430;BME280;36359;41.556;-8.418;2023-05-22T06:22:02;99769.34;;;17.77;62.81
50430;BME280;36359;41.556;-8.418;2023-05-22T06:24:28;99768.50;;;17.97;61.49
50430;BME280;36359;41.556;-8.418;2023-05-22T06:26:59;99768.75;;;17.88;62.04
50430;BME280;36359;41.556;-8.418;2023-05-22T06:29:25;99771.84;;;17.59;63.65
50430;BME280;36359;41.556;-8.418;2023-05-22T06:31:52;99779.44;;;17.70;63.34
50430;BME280;36359;41.556;-8.418;2023-05-22T06:34:20;99771.03;;;17.65;63.49
50430;BME280;36359;41.556;-8.418;2023-05-22T06:36:47;99779.88;;;17.67;63.79
50430;BME280;36359;41.556;-8.418;2023-05-22T06:39:16;99777.19;;;17.87;62.67
50430;BME280;36359;41.556;-8.418;2023-05-22T06:42:11;99786.66;;;17.84;63.15
50430;BME280;36359;41.556;-8.418;2023-05-22T06:44:55;99791.31;;;17.84;62.84
50430;BME280;36359;41.556;-8.418;2023-05-22T06:47:25;99791.72;;;18.14;61.75
50430;BME280;36359;41.556;-8.418;2023-05-22T06:49:51;99787.09;;;18.08;61.86
50430;BME280;36359;41.556;-8.418;2023-05-22T06:52:16;99790.47;;;18.30;61.26
50430;BME280;36359;41.556;-8.418;2023-05-22T06:54:42;99792.97;;;18.51;60.64
50430;BME280;36359;41.556;-8.418;2023-05-22T06:57:11;99795.03;;;18.76;60.67
50430;BME280;36359;41.556;-8.418;2023-05-22T06:59:36;99790.81;;;18.80;60.95
50430;BME280;36359;41.556;-8.418;2023-05-22T07:02:04;99802.00;;;18.78;59.31
50430;BME280;36359;41.556;-8.418;2023-05-22T07:04:49;99797.47;;;19.04;56.71
50430;BME280;36359;41.556;-8.418;2023-05-22T07:07:21;99805.50;;;19.05;57.80
50430;BME280;36359;41.556;-8.418;2023-05-22T07:09:51;99799.88;;;18.80;58.34
50430;BME280;36359;41.556;-8.418;2023-05-22T07:12:17;99809.13;;;19.38;55.00
50430;BME280;36359;41.556;-8.418;2023-05-22T07:14:45;99802.91;;;19.56;54.75
50430;BME280;36359;41.556;-8.418;2023-05-22T07:17:12;99802.28;;;19.54;55.72
50430;BME280;36359;41.556;-8.418;2023-05-22T07:19:42;99803.75;;;19.56;56.55
50430;BME280;36359;41.556;-8.418;2023-05-22T07:22:08;99814.94;;;19.61;57.55
50430;BME280;36359;41.556;-8.418;2023-05-22T07:24:37;99806.72;;;19.55;58.36
50430;BME280;36359;41.556;-8.418;2023-05-22T07:27:04;99807.50;;;19.62;57.07
50430;BME280;36359;41.556;-8.418;2023-05-22T07:29:31;99813.47;;;19.65;55.69
50430;BME280;36359;41.556;-8.418;2023-05-22T07:31:58;99808.16;;;20.20;53.72
50430;BME280;36359;41.556;-8.418;2023-05-22T07:34:26;99813.72;;;19.89;56.23
50430;BME280;36359;41.556;-8.418;2023-05-22T07:37:05;99814.31;;;19.66;56.70
50430;BME280;36359;41.556;-8.418;2023-05-22T07:39:30;99813.78;;;20.07;55.04
50430;BME280;36359;41.556;-8.418;2023-05-22T07:41:57;99805.97;;;20.54;53.67
50430;BME280;36359;41.556;-8.418;2023-05-22T07:44:22;99807.44;;;20.94;51.84
50430;BME280;36359;41.556;-8.418;2023-05-22T07:46:48;99808.75;;;21.09;52.88
50430;BME280;36359;41.556;-8.418;2023-05-22T07:49:18;99806.34;;;21.13;51.79
50430;BME280;36359;41.556;-8.418;2023-05-22T07:51:45;99806.50;;;20.38;55.43
50430;BME280;36359;41.556;-8.418;2023-05-22T07:54:11;99813.56;;;20.34;56.86
50430;BME280;36359;41.556;-8.418;2023-05-22T07:56:43;99814.00;;;20.31;56.69
50430;BME280;36359;41.556;-8.418;2023-05-22T07:59:10;99805.97;;;20.54;54.83
50430;BME280;36359;41.556;-8.418;2023-05-22T08:01:36;99803.31;;;20.41;55.68
50430;BME280;36359;41.556;-8.418;2023-05-22T08:04:03;99808.47;;;20.56;55.64
50430;BME280;36359;41.556;-8.418;2023-05-22T08:06:29;99807.06;;;20.72;54.73
50430;BME280;36359;41.556;-8.418;2023-05-22T08:08:55;99799.84;;;20.52;58.35
50430;BME280;36359;41.556;-8.418;2023-05-22T08:11:20;99798.94;;;20.08;60.15
50430;BME280;36359;41.556;-8.418;2023-05-22T08:13:46;99798.22;;;19.94;59.36
50430;BME280;36359;41.556;-8.418;2023-05-22T08:16:12;99797.56;;;20.24;58.94
50430;BME280;36359;41.556;-8.418;2023-05-22T08:18:38;99791.59;;;20.27;58.43
50430;BME280;36359;41.556;-8.418;2023-05-22T08:21:04;99805.06;;;19.85;59.93
50430;BME280;36359;41.556;-8.418;2023-05-22T08:23:31;99794.66;;;19.56;61.65
50430;BME280;36359;41.556;-8.418;2023-05-22T08:25:57;99801.66;;;19.90;60.53
50430;BME280;36359;41.556;-8.418;2023-05-22T08:28:22;99799.78;;;19.84;60.32
50430;BME280;36359;41.556;-8.418;2023-05-22T08:30:48;99804.41;;;19.90;59.29
50430;BME280;36359;41.556;-8.418;2023-05-22T08:33:14;99798.28;;;20.13;58.42
50430;BME280;36359;41.556;-8.418;2023-05-22T08:35:40;99808.00;;;20.15;59.28
50430;BME280;36359;41.556;-8.418;2023-05-22T08:38:06;99813.34;;;20.10;58.80
50430;BME280;36359;41.556;-8.418;2023-05-22T08:40:35;99801.59;;;20.22;57.50
50430;BME280;36359;41.556;-8.418;2023-05-22T08:43:02;99809.72;;;20.35;57.32
50430;BME280;36359;41.556;-8.418;2023-05-22T08:45:33;99812.69;;;20.58;57.93
50430;BME280;36359;41.556;-8.418;2023-05-22T08:48:02;99818.53;;;21.05;55.85
50430;BME280;36359;41.556;-8.418;2023-05-22T08:50:31;99818.16;;;21.02;57.01
50430;BME280;36359;41.556;-8.418;2023-05-22T08:52:59;99821.75;;;21.02;55.96
50430;BME280;36359;41.556;-8.418;2023-05-22T08:55:26;99818.41;;;21.00;54.97
50430;BME280;36359;41.556;-8.418;2023-05-22T08:57:52;99821.75;;;21.21;54.24
50430;BME280;36359;41.556;-8.418;2023-05-22T09:00:19;99818.91;;;20.91;54.53
50430;BME280;36359;41.556;-8.418;2023-05-22T09:02:45;99824.84;;;20.94;54.20
50430;BME280;36359;41.556;-8.418;2023-05-22T09:05:11;99817.63;;;20.93;54.41
50430;BME280;36359;41.556;-8.418;2023-05-22T09:07:37;99820.06;;;21.01;53.89
50430;BME280;36359;41.556;-8.418;2023-05-22T09:10:05;99817.19;;;21.26;53.40
50430;BME280;36359;41.556;-8.418;2023-05-22T09:12:32;99820.47;;;21.35;52.90
50430;BME280;36359;41.556;-8.418;2023-05-22T09:15:08;99811.44;;;21.76;51.23
50430;BME280;36359;41.556;-8.418;2023-05-22T09:17:42;99811.91;;;21.73;50.38
50430;BME280;36359;41.556;-8.418;2023-05-22T09:20:11;99809.72;;;21.64;50.51
50430;BME280;36359;41.556;-8.418;2023-05-22T09:22:40;99812.16;;;21.72;50.60
50430;BME280;36359;41.556;-8.418;2023-05-22T09:25:07;99805.66;;;21.66;50.21
50430;BME280;36359;41.556;-8.418;2023-05-22T09:27:34;99815.53;;;21.74;50.12
50430;BME280;36359;41.556;-8.418;2023-05-22T09:30:00;99800.84;;;22.15;48.12
50430;BME280;36359;41.556;-8.418;2023-05-22T09:32:29;99797.84;;;22.17;45.24
50430;BME280;36359;41.556;-8.418;2023-05-22T09:35:00;99801.25;;;22.31;46.82
50430;BME280;36359;41.556;-8.418;2023-05-22T09:37:27;99804.91;;;22.01;46.13
50430;BME280;36359;41.556;-8.418;2023-05-22T09:39:52;99798.31;;;22.14;46.59
50430;BME280;36359;41.556;-8.418;2023-05-22T09:42:20;99799.66;;;22.23;45.95
50430;BME280;36359;41.556;-8.418;2023-05-22T09:44:48;99797.84;;;22.76;45.06
50430;BME280;36359;41.556;-8.418;2023-05-22T09:47:14;99797.97;;;22.81;45.51
50430;BME280;36359;41.556;-8.418;2023-05-22T09:49:40;99800.78;;;23.21;44.98
50430;BME280;36359;41.556;-8.418;2023-05-22T09:52:07;99796.28;;;23.32;44.36
50430;BME280;36359;41.556;-8.418;2023-05-22T09:54:33;99791.09;;;23.07;45.42
50430;BME280;36359;41.556;-8.418;2023-05-22T09:56:59;99797.00;;;23.39;45.50
50430;BME280;36359;41.556;-8.418;2023-05-22T09:59:26;99789.84;;;23.15;44.74
50430;BME280;36359;41.556;-8.418;2023-05-22T10:01:54;99796.72;;;23.12;44.64
50430;BME280;36359;41.556;-8.418;2023-05-22T10:04:31;99786.06;;;23.32;45.19
50430;BME280;36359;41.556;-8.418;2023-05-22T10:07:02;99785.16;;;23.44;44.76
50430;BME280;36359;41.556;-8.418;2023-05-22T10:09:30;99785.38;;;23.83;43.98
50430;BME280;36359;41.556;-8.418;2023-05-22T10:12:00;99789.03;;;23.43;43.30
50430;BME280;36359;41.556;-8.418;2023-05-22T10:14:28;99789.06;;;23.60;44.16
50430;BME280;36359;41.556;-8.418;2023-05-22T10:16:54;99786.38;;;23.65;45.69
50430;BME280;36359;41.556;-8.418;2023-05-22T10:19:26;99783.25;;;23.90;45.40
50430;BME280;36359;41.556;-8.418;2023-05-22T10:21:56;99787.28;;;23.99;44.09
50430;BME280;36359;41.556;-8.418;2023-05-22T10:24:28;99789.13;;;23.48;43.08
50430;BME280;36359;41.556;-8.418;2023-05-22T10:26:54;99787.34;;;23.42;43.29
50430;BME280;36359;41.556;-8.418;2023-05-22T10:29:24;99787.19;;;23.48;45.32
50430;BME280;36359;41.556;-8.418;2023-05-22T10:34:35;99775.09;;;24.00;42.70
50430;BME280;36359;41.556;-8.418;2023-05-22T10:37:12;99775.75;;;23.73;42.64
50430;BME280;36359;41.556;-8.418;2023-05-22T10:39:46;99778.31;;;23.92;44.21
50430;BME280;36359;41.556;-8.418;2023-05-22T10:42:15;99776.25;;;23.70;45.36
50430;BME280;36359;41.556;-8.418;2023-05-22T10:44:41;99775.19;;;23.88;44.03
50430;BME280;36359;41.556;-8.418;2023-05-22T10:47:13;99770.25;;;24.07;43.10
50430;BME280;36359;41.556;-8.418;2023-05-22T10:49:42;99778.31;;;24.25;42.21
50430;BME280;36359;41.556;-8.418;2023-05-22T10:52:11;99782.09;;;24.36;44.13
50430;BME280;36359;41.556;-8.418;2023-05-22T10:54:39;99773.56;;;24.77;43.29
50430;BME280;36359;41.556;-8.418;2023-05-22T10:57:13;99778.72;;;24.90;43.53
50430;BME280;36359;41.556;-8.418;2023-05-22T10:59:41;99775.84;;;24.85;44.73
50430;BME280;36359;41.556;-8.418;2023-05-22T11:02:18;99779.09;;;24.99;41.62
50430;BME280;36359;41.556;-8.418;2023-05-22T11:04:44;99772.19;;;25.23;39.51
50430;BME280;36359;41.556;-8.418;2023-05-22T11:07:10;99776.41;;;25.26;38.61
50430;BME280;36359;41.556;-8.418;2023-05-22T11:09:42;99766.34;;;24.98;43.18
50430;BME280;36359;41.556;-8.418;2023-05-22T11:14:49;99769.75;;;25.81;39.29
50430;BME280;36359;41.556;-8.418;2023-05-22T11:17:20;99767.97;;;25.70;40.63
50430;BME280;36359;41.556;-8.418;2023-05-22T11:20:08;99762.34;;;25.59;39.67
50430;BME280;36359;41.556;-8.418;2023-05-22T11:22:40;99761.84;;;25.68;40.89
50430;BME280;36359;41.556;-8.418;2023-05-22T11:25:10;99760.47;;;25.70;39.74
50430;BME280;36359;41.556;-8.418;2023-05-22T11:27:36;99751.56;;;25.14;41.01
50430;BME280;36359;41.556;-8.418;2023-05-22T11:30:03;99755.63;;;25.06;40.58
50430;BME280;36359;41.556;-8.418;2023-05-22T11:32:29;99746.44;;;25.55;40.66
50430;BME280;36359;41.556;-8.418;2023-05-22T11:34:55;99749.69;;;25.47;40.19
50430;BME280;36359;41.556;-8.418;2023-05-22T11:37:20;99744.09;;;25.69;40.73
50430;BME280;36359;41.556;-8.418;2023-05-22T11:39:56;99734.25;;;25.83;39.63
50430;BME280;36359;41.556;-8.418;2023-05-22T11:42:22;99726.06;;;26.03;39.45
50430;BME280;36359;41.556;-8.418;2023-05-22T11:44:48;99724.47;;;26.13;39.47
50430;BME280;36359;41.556;-8.418;2023-05-22T11:47:14;99718.28;;;26.05;39.58
50430;BME280;36359;41.556;-8.418;2023-05-22T11:49:40;99727.44;;;26.01;38.71
50430;BME280;36359;41.556;-8.418;2023-05-22T11:52:07;99719.97;;;26.07;39.38
50430;BME280;36359;41.556;-8.418;2023-05-22T11:54:34;99716.16;;;26.18;39.30
50430;BME280;36359;41.556;-8.418;2023-05-22T11:57:02;99710.72;;;26.38;37.86
50430;BME280;36359;41.556;-8.418;2023-05-22T11:59:28;99716.28;;;25.96;38.90
50430;BME280;36359;41.556;-8.418;2023-05-22T12:01:53;99706.56;;;26.41;38.32
50430;BME280;36359;41.556;-8.418;2023-05-22T12:04:19;99714.56;;;26.32;37.91
50430;BME280;36359;41.556;-8.418;2023-05-22T12:06:45;99708.09;;;26.16;39.05
50430;BME280;36359;41.556;-8.418;2023-05-22T12:09:11;99707.41;;;25.99;38.92
50430;BME280;36359;41.556;-8.418;2023-05-22T12:11:37;99690.06;;;26.29;37.48
50430;BME280;36359;41.556;-8.418;2023-05-22T12:14:03;99688.84;;;26.52;37.80
50430;BME280;36359;41.556;-8.418;2023-05-22T12:16:35;99693.94;;;26.70;37.13
50430;BME280;36359;41.556;-8.418;2023-05-22T12:19:07;99690.06;;;26.77;37.95
50430;BME280;36359;41.556;-8.418;2023-05-22T12:21:33;99689.59;;;27.00;37.30
50430;BME280;36359;41.556;-8.418;2023-05-22T12:24:06;99691.09;;;27.28;36.50
50430;BME280;36359;41.556;-8.418;2023-05-22T12:26:32;99682.75;;;27.33;35.28
50430;BME280;36359;41.556;-8.418;2023-05-22T12:28:58;99679.22;;;26.75;35.34
50430;BME280;36359;41.556;-8.418;2023-05-22T12:31:24;99682.06;;;26.38;37.33
50430;BME280;36359;41.556;-8.418;2023-05-22T12:33:53;99678.03;;;26.61;36.32
50430;BME280;36359;41.556;-8.418;2023-05-22T12:36:20;99673.19;;;26.41;36.80
50430;BME280;36359;41.556;-8.418;2023-05-22T12:38:46;99665.22;;;26.55;36.54
50430;BME280;36359;41.556;-8.418;2023-05-22T12:41:11;99664.72;;;26.73;34.70
50430;BME280;36359;41.556;-8.418;2023-05-22T12:43:37;99671.47;;;26.87;35.49
50430;BME280;36359;41.556;-8.418;2023-05-22T12:46:02;99661.47;;;26.91;35.30
50430;BME280;36359;41.556;-8.418;2023-05-22T12:48:28;99665.38;;;26.95;35.81
50430;BME280;36359;41.556;-8.418;2023-05-22T12:50:54;99660.84;;;26.79;35.10
50430;BME280;36359;41.556;-8.418;2023-05-22T12:53:19;99659.34;;;27.34;34.85
50430;BME280;36359;41.556;-8.418;2023-05-22T12:55:45;99659.63;;;27.33;35.93
50430;BME280;36359;41.556;-8.418;2023-05-22T12:58:11;99652.56;;;26.89;36.26
50430;BME280;36359;41.556;-8.418;2023-05-22T13:00:36;99655.38;;;27.05;36.20
50430;BME280;36359;41.556;-8.418;2023-05-22T13:03:02;99657.22;;;26.73;37.33
50430;BME280;36359;41.556;-8.418;2023-05-22T13:05:30;99657.13;;;26.00;37.93
50430;BME280;36359;41.556;-8.418;2023-05-22T13:07:55;99644.03;;;25.64;37.93
50430;BME280;36359;41.556;-8.418;2023-05-22T13:10:28;99638.56;;;25.74;37.85
50430;BME280;36359;41.556;-8.418;2023-05-22T13:12:54;99628.78;;;26.09;37.62
50430;BME280;36359;41.556;-8.418;2023-05-22T13:15:20;99632.09;;;26.05;37.72